Terminal Aerodrome Forecast
Issued by NWS Charleston, WV

Current Version | Previous Version | Graphics & Text | Print | Product List | Glossary On
Versions: 1 2 3 4 5 6 7 8 9 10 11 12 13 14 15 16 17 18 19 20 21 22 23
000
FTUS41 KRLX 031739
TAFHTS
TAF
KHTS 031739Z 0318/0418 VRB04KT P6SM VCSH SCT050
     FM031900 VRB03KT P6SM VCTS SCT045CB
     FM040400 00000KT 6SM BR SCT060
     FM040700 00000KT 5SM BR SCT060
     FM040800 00000KT 1SM BR SCT001
     FM041200 00000KT P6SM SCT080
     FM041700 00000KT P6SM VCTS SCT045CB=

USA.gov is the U.S. government's official web portal to all federal, state and local government web resources and services.